sensor_id;sensor_type;location;lat;lon;timestamp;pressure;altitude;pressure_sealevel;temperature;humidity
52343;BME280;38277;51.972;4.624;2023-04-06T00:08:48;101980.0;;;7.4;54.5
52343;BME280;38277;51.972;4.624;2023-04-06T00:13:26;101970.0;;;7.4;54.0
52343;BME280;38277;51.972;4.624;2023-04-06T00:17:55;101980.0;;;7.4;54.0
52343;BME280;38277;51.972;4.624;2023-04-06T00:22:07;101970.0;;;7.5;53.5
52343;BME280;38277;51.972;4.624;2023-04-06T00:30:59;101960.0;;;7.5;53.0
52343;BME280;38277;51.972;4.624;2023-04-06T00:35:43;101950.0;;;7.5;53.0
52343;BME280;38277;51.972;4.624;2023-04-06T00:44:40;101940.0;;;7.4;53.0
52343;BME280;38277;51.972;4.624;2023-04-06T00:49:00;101940.0;;;7.3;53.0
52343;BME280;38277;51.972;4.624;2023-04-06T00:58:05;101930.0;;;7.2;53.0
52343;BME280;38277;51.972;4.624;2023-04-06T01:02:47;101920.0;;;7.2;53.0
52343;BME280;38277;51.972;4.624;2023-04-06T01:07:03;101920.0;;;7.2;53.5
52343;BME280;38277;51.972;4.624;2023-04-06T01:11:27;101910.0;;;7.2;53.5
52343;BME280;38277;51.972;4.624;2023-04-06T01:20:42;101910.0;;;7.2;54.0
52343;BME280;38277;51.972;4.624;2023-04-06T01:25:26;101900.0;;;7.2;54.0
52343;BME280;38277;51.972;4.624;2023-04-06T01:29:28;101890.0;;;7.2;54.0
52343;BME280;38277;51.972;4.624;2023-04-06T01:34:14;101880.0;;;7.2;54.5
52343;BME280;38277;51.972;4.624;2023-04-06T01:38:54;101890.0;;;7.2;54.0
52343;BME280;38277;51.972;4.624;2023-04-06T01:43:02;101870.0;;;7.2;54.0
52343;BME280;38277;51.972;4.624;2023-04-06T01:47:28;101870.0;;;7.2;54.0
52343;BME280;38277;51.972;4.624;2023-04-06T01:56:44;101850.0;;;7.2;54.0
52343;BME280;38277;51.972;4.624;2023-04-06T02:01:05;101860.0;;;7.2;54.0
52343;BME280;38277;51.972;4.624;2023-04-06T02:05:43;101860.0;;;7.2;54.0
52343;BME280;38277;51.972;4.624;2023-04-06T02:10:11;101850.0;;;7.2;54.5
52343;BME280;38277;51.972;4.624;2023-04-06T02:14:50;101850.0;;;7.2;54.5
52343;BME280;38277;51.972;4.624;2023-04-06T02:19:08;101830.0;;;7.3;55.0
52343;BME280;38277;51.972;4.624;2023-04-06T02:23:50;101830.0;;;7.3;55.0
52343;BME280;38277;51.972;4.624;2023-04-06T02:32:44;101830.0;;;7.3;55.0
52343;BME280;38277;51.972;4.624;2023-04-06T02:37:14;101820.0;;;7.3;55.0
52343;BME280;38277;51.972;4.624;2023-04-06T02:41:38;101820.0;;;7.3;55.0
52343;BME280;38277;51.972;4.624;2023-04-06T02:45:59;101810.0;;;7.3;55.0
52343;BME280;38277;51.972;4.624;2023-04-06T02:50:37;101810.0;;;7.3;55.5
52343;BME280;38277;51.972;4.624;2023-04-06T02:55:14;101810.0;;;7.3;55.5
52343;BME280;38277;51.972;4.624;2023-04-06T03:08:53;101790.0;;;7.3;55.5
52343;BME280;38277;51.972;4.624;2023-04-06T03:13:20;101790.0;;;7.3;56.0
52343;BME280;38277;51.972;4.624;2023-04-06T03:17:55;101790.0;;;7.3;56.5
52343;BME280;38277;51.972;4.624;2023-04-06T03:22:20;101780.0;;;7.3;56.5
52343;BME280;38277;51.972;4.624;2023-04-06T03:26:33;101770.0;;;7.3;56.5
52343;BME280;38277;51.972;4.624;2023-04-06T03:31:00;101760.0;;;7.3;56.5
52343;BME280;38277;51.972;4.624;2023-04-06T03:35:53;101760.0;;;7.3;57.0
52343;BME280;38277;51.972;4.624;2023-04-06T03:44:32;101770.0;;;7.3;57.0
52343;BME280;38277;51.972;4.624;2023-04-06T03:48:57;101760.0;;;7.3;57.0
52343;BME280;38277;51.972;4.624;2023-04-06T03:53:50;101760.0;;;7.3;56.5
52343;BME280;38277;51.972;4.624;2023-04-06T03:58:11;101760.0;;;7.4;57.0
52343;BME280;38277;51.972;4.624;2023-04-06T04:02:43;101760.0;;;7.3;57.0
52343;BME280;38277;51.972;4.624;2023-04-06T04:07:08;101760.0;;;7.4;57.5
52343;BME280;38277;51.972;4.624;2023-04-06T04:11:35;101750.0;;;7.4;57.5
52343;BME280;38277;51.972;4.624;2023-04-06T04:20:30;101750.0;;;7.4;57.5
52343;BME280;38277;51.972;4.624;2023-04-06T04:25:23;101760.0;;;7.4;57.5
52343;BME280;38277;51.972;4.624;2023-04-06T04:34:15;101750.0;;;7.5;57.5
52343;BME280;38277;51.972;4.624;2023-04-06T04:38:29;101750.0;;;7.5;58.0
52343;BME280;38277;51.972;4.624;2023-04-06T04:43:02;101760.0;;;7.5;58.0
52343;BME280;38277;51.972;4.624;2023-04-06T04:47:46;101750.0;;;7.5;58.0
52343;BME280;38277;51.972;4.624;2023-04-06T04:56:32;101750.0;;;7.6;58.0
52343;BME280;38277;51.972;4.624;2023-04-06T05:01:18;101750.0;;;7.7;58.0
52343;BME280;38277;51.972;4.624;2023-04-06T05:05:49;101740.0;;;7.7;58.0
52343;BME280;38277;51.972;4.624;2023-04-06T05:14:49;101740.0;;;7.8;58.0
52343;BME280;38277;51.972;4.624;2023-04-06T05:19:13;101750.0;;;7.9;58.0
52343;BME280;38277;51.972;4.624;2023-04-06T05:23:34;101740.0;;;7.9;58.0
52343;BME280;38277;51.972;4.624;2023-04-06T05:32:45;101740.0;;;8.0;57.5
52343;BME280;38277;51.972;4.624;2023-04-06T05:37:20;101740.0;;;8.1;57.0
52343;BME280;38277;51.972;4.624;2023-04-06T05:41:55;101730.0;;;8.2;57.0
52343;BME280;38277;51.972;4.624;2023-04-06T05:46:15;101720.0;;;8.2;57.0
52343;BME280;38277;51.972;4.624;2023-04-06T05:51:11;101740.0;;;8.3;57.0
52343;BME280;38277;51.972;4.624;2023-04-06T06:00:14;101730.0;;;8.3;57.0
52343;BME280;38277;51.972;4.624;2023-04-06T06:04:01;101740.0;;;8.5;57.5
52343;BME280;38277;51.972;4.624;2023-04-06T06:13:05;101730.0;;;8.5;57.5
52343;BME280;38277;51.972;4.624;2023-04-06T06:16:06;101740.0;;;8.6;57.5
52343;BME280;38277;51.972;4.624;2023-04-06T06:25:09;101730.0;;;8.7;58.0
52343;BME280;38277;51.972;4.624;2023-04-06T06:31:11;101720.0;;;8.8;58.0
52343;BME280;38277;51.972;4.624;2023-04-06T06:34:12;101730.0;;;8.8;58.0
52343;BME280;38277;51.972;4.624;2023-04-06T06:40:14;101720.0;;;9.0;58.0
52343;BME280;38277;51.972;4.624;2023-04-06T06:49:17;101720.0;;;9.1;58.0
52343;BME280;38277;51.972;4.624;2023-04-06T06:53:30;101720.0;;;9.3;58.0
52343;BME280;38277;51.972;4.624;2023-04-06T06:59:33;101720.0;;;9.5;58.0
52343;BME280;38277;51.972;4.624;2023-04-06T07:07:23;101720.0;;;9.8;57.5
52343;BME280;38277;51.972;4.624;2023-04-06T07:16:27;101730.0;;;10.0;57.0
52343;BME280;38277;51.972;4.624;2023-04-06T07:20:32;101710.0;;;10.2;56.0
52343;BME280;38277;51.972;4.624;2023-04-06T07:26:35;101700.0;;;10.3;55.5
52343;BME280;38277;51.972;4.624;2023-04-06T07:34:02;101700.0;;;10.4;55.5
52343;BME280;38277;51.972;4.624;2023-04-06T07:46:07;101700.0;;;10.6;56.0
52343;BME280;38277;51.972;4.624;2023-04-06T07:52:17;101700.0;;;10.8;56.5
52343;BME280;38277;51.972;4.624;2023-04-06T07:58:18;101700.0;;;10.9;56.5
52343;BME280;38277;51.972;4.624;2023-04-06T08:11:54;101700.0;;;11.2;57.5
52343;BME280;38277;51.972;4.624;2023-04-06T08:19:20;101700.0;;;11.2;58.5
52343;BME280;38277;51.972;4.624;2023-04-06T08:24:32;101700.0;;;11.3;59.0
52343;BME280;38277;51.972;4.624;2023-04-06T08:33:36;101710.0;;;11.2;60.0
52343;BME280;38277;51.972;4.624;2023-04-06T08:36:58;101700.0;;;11.2;61.5
52343;BME280;38277;51.972;4.624;2023-04-06T08:43:03;101700.0;;;11.3;62.0
52343;BME280;38277;51.972;4.624;2023-04-06T08:50:34;101700.0;;;11.4;61.5
52343;BME280;38277;51.972;4.624;2023-04-06T08:59:37;101700.0;;;11.5;61.5
52343;BME280;38277;51.972;4.624;2023-04-06T09:02:39;101700.0;;;11.6;60.5
52343;BME280;38277;51.972;4.624;2023-04-06T09:08:41;101700.0;;;11.8;60.5
52343;BME280;38277;51.972;4.624;2023-04-06T09:14:42;101700.0;;;11.7;61.0
52343;BME280;38277;51.972;4.624;2023-04-06T09:25:23;101700.0;;;11.6;61.5
52343;BME280;38277;51.972;4.624;2023-04-06T09:28:22;101690.0;;;11.5;63.0
52343;BME280;38277;51.972;4.624;2023-04-06T09:38:51;101690.0;;;11.4;63.5
52343;BME280;38277;51.972;4.624;2023-04-06T09:41:49;101690.0;;;11.4;64.5
52343;BME280;38277;51.972;4.624;2023-04-06T09:52:03;101680.0;;;11.5;65.5
52343;BME280;38277;51.972;4.624;2023-04-06T09:55:04;101690.0;;;11.5;66.0
52343;BME280;38277;51.972;4.624;2023-04-06T10:03:06;101670.0;;;11.3;67.5
52343;BME280;38277;51.972;4.624;2023-04-06T10:08:54;101680.0;;;11.3;68.0
52343;BME280;38277;51.972;4.624;2023-04-06T10:22:03;101670.0;;;11.2;70.0
52343;BME280;38277;51.972;4.624;2023-04-06T10:29:41;101660.0;;;11.1;71.0
52343;BME280;38277;51.972;4.624;2023-04-06T10:35:42;101650.0;;;11.1;71.0
52343;BME280;38277;51.972;4.624;2023-04-06T10:46:25;101650.0;;;11.0;72.5
52343;BME280;38277;51.972;4.624;2023-04-06T10:49:24;101650.0;;;11.1;73.5
52343;BME280;38277;51.972;4.624;2023-04-06T10:59:31;101640.0;;;11.1;74.0
52343;BME280;38277;51.972;4.624;2023-04-06T11:02:31;101640.0;;;11.1;74.0
52343;BME280;38277;51.972;4.624;2023-04-06T11:11:38;101630.0;;;11.0;74.5
52343;BME280;38277;51.972;4.624;2023-04-06T11:14:36;101620.0;;;11.0;75.0
52343;BME280;38277;51.972;4.624;2023-04-06T11:20:38;101620.0;;;10.9;75.5
52343;BME280;38277;51.972;4.624;2023-04-06T11:26:41;101610.0;;;10.9;76.0
52343;BME280;38277;51.972;4.624;2023-04-06T11:35:50;101600.0;;;10.8;76.5
52343;BME280;38277;51.972;4.624;2023-04-06T11:41:54;101610.0;;;10.7;77.0
52343;BME280;38277;51.972;4.624;2023-04-06T11:46:29;101600.0;;;10.7;77.5
52343;BME280;38277;51.972;4.624;2023-04-06T11:52:27;101600.0;;;10.7;78.0
52343;BME280;38277;51.972;4.624;2023-04-06T12:02:48;101580.0;;;10.7;78.0
52343;BME280;38277;51.972;4.624;2023-04-06T12:08:48;101580.0;;;10.6;78.5
52343;BME280;38277;51.972;4.624;2023-04-06T12:13:19;101570.0;;;10.5;79.0
52343;BME280;38277;51.972;4.624;2023-04-06T12:22:22;101580.0;;;10.5;79.0
52343;BME280;38277;51.972;4.624;2023-04-06T12:29:41;101570.0;;;10.5;79.0
52343;BME280;38277;51.972;4.624;2023-04-06T12:32:42;101570.0;;;10.5;80.0
52343;BME280;38277;51.972;4.624;2023-04-06T12:40:08;101560.0;;;10.5;80.0
52343;BME280;38277;51.972;4.624;2023-04-06T12:46:04;101560.0;;;10.5;81.0
52343;BME280;38277;51.972;4.624;2023-04-06T12:56:36;101560.0;;;10.5;81.5
52343;BME280;38277;51.972;4.624;2023-04-06T12:59:36;101550.0;;;10.6;81.5
52343;BME280;38277;51.972;4.624;2023-04-06T13:07:05;101550.0;;;10.5;82.0
52343;BME280;38277;51.972;4.624;2023-04-06T13:13:07;101540.0;;;10.4;82.5
52343;BME280;38277;51.972;4.624;2023-04-06T13:23:45;101540.0;;;10.4;83.5
52343;BME280;38277;51.972;4.624;2023-04-06T13:26:45;101530.0;;;10.4;83.5
52343;BME280;38277;51.972;4.624;2023-04-06T13:37:10;101530.0;;;10.4;84.5
52343;BME280;38277;51.972;4.624;2023-04-06T13:40:11;101520.0;;;10.4;84.0
52343;BME280;38277;51.972;4.624;2023-04-06T13:52:14;101520.0;;;10.4;84.5
52343;BME280;38277;51.972;4.624;2023-04-06T13:56:28;101510.0;;;10.3;85.0
52343;BME280;38277;51.972;4.624;2023-04-06T14:01:17;101510.0;;;10.4;85.5
52343;BME280;38277;51.972;4.624;2023-04-06T14:10:14;101500.0;;;10.5;86.5
52343;BME280;38277;51.972;4.624;2023-04-06T14:14:53;101510.0;;;10.6;86.0
52343;BME280;38277;51.972;4.624;2023-04-06T14:19:01;101500.0;;;10.6;86.0
52343;BME280;38277;51.972;4.624;2023-04-06T14:28:07;101500.0;;;10.7;86.5
52343;BME280;38277;51.972;4.624;2023-04-06T14:32:37;101490.0;;;10.8;86.5
52343;BME280;38277;51.972;4.624;2023-04-06T14:37:16;101490.0;;;10.8;86.5
52343;BME280;38277;51.972;4.624;2023-04-06T14:41:44;101490.0;;;10.8;86.5
52343;BME280;38277;51.972;4.624;2023-04-06T14:46:00;101480.0;;;10.8;86.0
52343;BME280;38277;51.972;4.624;2023-04-06T14:50:39;101490.0;;;10.7;86.5
52343;BME280;38277;51.972;4.624;2023-04-06T14:55:19;101490.0;;;10.7;86.5
52343;BME280;38277;51.972;4.624;2023-04-06T15:04:04;101480.0;;;10.7;86.5
52343;BME280;38277;51.972;4.624;2023-04-06T15:08:35;101480.0;;;10.7;86.5
52343;BME280;38277;51.972;4.624;2023-04-06T15:13:18;101490.0;;;10.7;87.0
52343;BME280;38277;51.972;4.624;2023-04-06T15:17:40;101480.0;;;10.7;87.5
52343;BME280;38277;51.972;4.624;2023-04-06T15:21:57;101480.0;;;10.7;87.5
52343;BME280;38277;51.972;4.624;2023-04-06T15:26:42;101480.0;;;10.8;87.5
52343;BME280;38277;51.972;4.624;2023-04-06T15:31:14;101470.0;;;10.8;87.5
52343;BME280;38277;51.972;4.624;2023-04-06T15:40:00;101470.0;;;10.8;87.5
52343;BME280;38277;51.972;4.624;2023-04-06T15:44:28;101470.0;;;10.8;87.5
52343;BME280;38277;51.972;4.624;2023-04-06T16:02:48;101460.0;;;10.9;88.0
52343;BME280;38277;51.972;4.624;2023-04-06T16:06:59;101450.0;;;10.8;88.5
52343;BME280;38277;51.972;4.624;2023-04-06T16:16:07;101450.0;;;10.8;89.0
52343;BME280;38277;51.972;4.624;2023-04-06T16:20:44;101460.0;;;10.9;89.0
52343;BME280;38277;51.972;4.624;2023-04-06T16:25:21;101450.0;;;10.9;89.0
52343;BME280;38277;51.972;4.624;2023-04-06T16:29:53;101460.0;;;10.9;89.5
52343;BME280;38277;51.972;4.624;2023-04-06T16:34:07;101460.0;;;10.9;89.5
52343;BME280;38277;51.972;4.624;2023-04-06T16:38:35;101450.0;;;10.9;89.5
52343;BME280;38277;51.972;4.624;2023-04-06T16:43:09;101450.0;;;10.9;89.0
52343;BME280;38277;51.972;4.624;2023-04-06T16:52:06;101460.0;;;10.8;90.0
52343;BME280;38277;51.972;4.624;2023-04-06T16:56:52;101460.0;;;10.8;90.5
52343;BME280;38277;51.972;4.624;2023-04-06T17:00:59;101460.0;;;10.8;90.5
52343;BME280;38277;51.972;4.624;2023-04-06T17:05:31;101460.0;;;10.8;90.5
52343;BME280;38277;51.972;4.624;2023-04-06T17:10:22;101460.0;;;10.8;90.5
52343;BME280;38277;51.972;4.624;2023-04-06T17:14:31;101460.0;;;10.8;90.5
52343;BME280;38277;51.972;4.624;2023-04-06T17:19:07;101460.0;;;10.8;90.5
52343;BME280;38277;51.972;4.624;2023-04-06T17:28:25;101460.0;;;10.8;91.0
52343;BME280;38277;51.972;4.624;2023-04-06T17:32:27;101470.0;;;10.9;91.0
52343;BME280;38277;51.972;4.624;2023-04-06T17:37:03;101470.0;;;10.8;91.5
52343;BME280;38277;51.972;4.624;2023-04-06T17:41:32;101470.0;;;10.9;91.5
52343;BME280;38277;51.972;4.624;2023-04-06T17:50:42;101490.0;;;10.9;91.5
52343;BME280;38277;51.972;4.624;2023-04-06T17:55:07;101480.0;;;10.9;91.5
52343;BME280;38277;51.972;4.624;2023-04-06T18:03:58;101480.0;;;11.0;91.5
52343;BME280;38277;51.972;4.624;2023-04-06T18:08:38;101480.0;;;11.0;91.5
52343;BME280;38277;51.972;4.624;2023-04-06T18:13:02;101480.0;;;11.0;91.5
52343;BME280;38277;51.972;4.624;2023-04-06T18:22:20;101490.0;;;11.1;91.5
52343;BME280;38277;51.972;4.624;2023-04-06T18:26:30;101500.0;;;11.1;91.5
52343;BME280;38277;51.972;4.624;2023-04-06T18:31:12;101500.0;;;11.1;92.0
52343;BME280;38277;51.972;4.624;2023-04-06T18:40:05;101510.0;;;11.1;92.0
52343;BME280;38277;51.972;4.624;2023-04-06T18:44:31;101520.0;;;11.1;92.0
52343;BME280;38277;51.972;4.624;2023-04-06T18:49:08;101530.0;;;11.1;92.0
52343;BME280;38277;51.972;4.624;2023-04-06T18:53:47;101520.0;;;11.1;92.0
52343;BME280;38277;51.972;4.624;2023-04-06T18:58:05;101530.0;;;11.1;92.0
52343;BME280;38277;51.972;4.624;2023-04-06T19:02:32;101540.0;;;11.1;92.0
52343;BME280;38277;51.972;4.624;2023-04-06T19:07:11;101540.0;;;11.1;92.0
52343;BME280;38277;51.972;4.624;2023-04-06T19:16:07;101540.0;;;11.0;92.0
52343;BME280;38277;51.972;4.624;2023-04-06T19:20:43;101560.0;;;11.0;91.5
52343;BME280;38277;51.972;4.624;2023-04-06T19:25:21;101550.0;;;10.9;91.5
52343;BME280;38277;51.972;4.624;2023-04-06T19:29:41;101550.0;;;10.9;91.5
52343;BME280;38277;51.972;4.624;2023-04-06T19:34:01;101560.0;;;10.8;91.5
52343;BME280;38277;51.972;4.624;2023-04-06T19:38:48;101570.0;;;10.8;91.5
52343;BME280;38277;51.972;4.624;2023-04-06T19:43:00;101580.0;;;10.8;91.0
52343;BME280;38277;51.972;4.624;2023-04-06T19:52:02;101590.0;;;10.8;90.5
52343;BME280;38277;51.972;4.624;2023-04-06T19:56:51;101580.0;;;10.7;90.5
52343;BME280;38277;51.972;4.624;2023-04-06T20:01:22;101570.0;;;10.6;90.5
52343;BME280;38277;51.972;4.624;2023-04-06T20:05:28;101570.0;;;10.6;90.5
52343;BME280;38277;51.972;4.624;2023-04-06T20:10:25;101580.0;;;10.5;90.5
52343;BME280;38277;51.972;4.624;2023-04-06T20:14:50;101570.0;;;10.5;90.0
52343;BME280;38277;51.972;4.624;2023-04-06T20:19:16;101600.0;;;10.5;90.0
52343;BME280;38277;51.972;4.624;2023-04-06T20:28:12;101600.0;;;10.5;90.5
52343;BME280;38277;51.972;4.624;2023-04-06T20:32:29;101610.0;;;10.5;90.5
52343;BME280;38277;51.972;4.624;2023-04-06T20:37:07;101620.0;;;10.5;90.5
52343;BME280;38277;51.972;4.624;2023-04-06T20:41:43;101630.0;;;10.5;90.0
52343;BME280;38277;51.972;4.624;2023-04-06T20:46:14;101630.0;;;10.4;90.0
52343;BME280;38277;51.972;4.624;2023-04-06T20:50:28;101620.0;;;10.4;90.0
52343;BME280;38277;51.972;4.624;2023-04-06T20:55:14;101630.0;;;10.4;90.0
52343;BME280;38277;51.972;4.624;2023-04-06T21:04:08;101620.0;;;10.3;90.0
52343;BME280;38277;51.972;4.624;2023-04-06T21:08:43;101620.0;;;10.3;90.0
52343;BME280;38277;51.972;4.624;2023-04-06T21:12:57;101620.0;;;10.2;90.0
52343;BME280;38277;51.972;4.624;2023-04-06T21:17:27;101630.0;;;10.2;90.0
52343;BME280;38277;51.972;4.624;2023-04-06T21:21:59;101630.0;;;10.1;90.5
52343;BME280;38277;51.972;4.624;2023-04-06T21:26:28;101640.0;;;10.1;90.5
52343;BME280;38277;51.972;4.624;2023-04-06T21:31:05;101630.0;;;10.1;91.0
52343;BME280;38277;51.972;4.624;2023-04-06T21:40:14;101640.0;;;10.2;91.0
52343;BME280;38277;51.972;4.624;2023-04-06T21:44:48;101650.0;;;10.2;91.0
52343;BME280;38277;51.972;4.624;2023-04-06T21:49:02;101640.0;;;10.2;91.0
52343;BME280;38277;51.972;4.624;2023-04-06T21:53:28;101660.0;;;10.2;91.0
52343;BME280;38277;51.972;4.624;2023-04-06T21:58:21;101660.0;;;10.2;90.5
52343;BME280;38277;51.972;4.624;2023-04-06T22:02:55;101660.0;;;10.2;90.5
52343;BME280;38277;51.972;4.624;2023-04-06T22:07:00;101660.0;;;10.2;91.0
52343;BME280;38277;51.972;4.624;2023-04-06T22:16:20;101660.0;;;10.3;91.0
52343;BME280;38277;51.972;4.624;2023-04-06T22:20:49;101660.0;;;10.3;90.5
52343;BME280;38277;51.972;4.624;2023-04-06T22:25:23;101660.0;;;10.3;90.0
52343;BME280;38277;51.972;4.624;2023-04-06T22:29:50;101660.0;;;10.3;90.0
52343;BME280;38277;51.972;4.624;2023-04-06T22:34:14;101660.0;;;10.2;89.5
52343;BME280;38277;51.972;4.624;2023-04-06T22:38:35;101660.0;;;10.2;89.5
52343;BME280;38277;51.972;4.624;2023-04-06T22:43:07;101680.0;;;10.2;89.5
52343;BME280;38277;51.972;4.624;2023-04-06T22:51:58;101690.0;;;10.1;89.0
52343;BME280;38277;51.972;4.624;2023-04-06T22:56:41;101690.0;;;10.0;88.5
52343;BME280;38277;51.972;4.624;2023-04-06T23:01:14;101690.0;;;9.9;88.5
52343;BME280;38277;51.972;4.624;2023-04-06T23:05:39;101680.0;;;9.9;89.0
52343;BME280;38277;51.972;4.624;2023-04-06T23:10:20;101680.0;;;9.9;89.0
52343;BME280;38277;51.972;4.624;2023-04-06T23:28:00;101700.0;;;9.9;89.0
52343;BME280;38277;51.972;4.624;2023-04-06T23:32:38;101700.0;;;9.9;89.0
52343;BME280;38277;51.972;4.624;2023-04-06T23:37:03;101700.0;;;9.9;89.0
52343;BME280;38277;51.972;4.624;2023-04-06T23:41:44;101700.0;;;9.9;89.0
52343;BME280;38277;51.972;4.624;2023-04-06T23:47:42;101700.0;;;10.0;88.5
52343;BME280;38277;51.972;4.624;2023-04-06T23:50:53;101710.0;;;10.0;88.5
52343;BME280;38277;51.972;4.624;2023-04-06T23:59:28;101710.0;;;10.0;88.5
